Time;durP1;ratioP1;P1;durP2;ratioP2;P2;SDS_P1;SDS_P2;PMS_P1;PMS_P2;Temp;Humidity;BMP_temperature;BMP_pressure;BME280_temperature;BME280_humidity;BME280_pressure;Samples;Min_cycle;Max_cycle;Signal;HPM_P1;HPM_P2
2023/11/06 00:00:33;;;;;;;4.83;1.20;;;10.60;99.90;;;;;;4920833;29;20287;-70
2023/11/06 00:02:59;;;;;;;5.50;1.00;;;10.60;99.90;;;;;;4920886;29;20214;-70
2023/11/06 00:05:25;;;;;;;2.10;1.10;;;10.60;99.90;;;;;;4920538;29;20455;-69
2023/11/06 00:07:50;;;;;;;1.97;0.93;;;10.60;99.90;;;;;;4934440;29;20675;-71
2023/11/06 00:10:17;;;;;;;3.27;1.23;;;10.60;99.90;;;;;;4936088;29;20195;-69
2023/11/06 00:12:43;;;;;;;4.37;1.33;;;10.60;99.90;;;;;;4927959;29;20493;-71
2023/11/06 00:15:09;;;;;;;5.90;1.30;;;10.60;99.90;;;;;;4921028;29;20442;-71
2023/11/06 00:17:37;;;;;;;1.63;0.93;;;10.60;99.90;;;;;;4921385;29;20656;-71
2023/11/06 00:20:03;;;;;;;6.90;2.00;;;10.60;99.90;;;;;;4932324;29;20430;-70
2023/11/06 00:22:30;;;;;;;2.73;1.37;;;10.60;99.90;;;;;;4939262;29;20430;-70
2023/11/06 00:24:56;;;;;;;2.30;0.90;;;10.60;99.90;;;;;;4929652;29;20482;-71
2023/11/06 00:27:25;;;;;;;2.63;1.10;;;10.50;99.90;;;;;;4936444;29;20446;-69
2023/11/06 00:29:50;;;;;;;6.73;1.60;;;10.50;99.90;;;;;;4928737;29;20415;-70
2023/11/06 00:32:16;;;;;;;4.67;1.70;;;10.50;99.90;;;;;;4931440;29;20613;-71
2023/11/06 00:34:42;;;;;;;2.07;1.07;;;10.50;99.90;;;;;;4938407;29;20213;-71
2023/11/06 00:37:08;;;;;;;4.97;1.47;;;10.40;99.90;;;;;;4904397;29;20430;-69
2023/11/06 00:39:35;;;;;;;3.20;1.20;;;10.30;99.90;;;;;;4923808;29;20455;-71
2023/11/06 00:42:02;;;;;;;5.10;1.33;;;10.30;99.90;;;;;;4934671;29;20202;-70
2023/11/06 00:44:28;;;;;;;3.57;1.13;;;10.30;99.90;;;;;;4914432;29;20450;-70
2023/11/06 00:46:54;;;;;;;3.80;1.10;;;10.20;99.90;;;;;;4942395;29;20488;-70
2023/11/06 00:49:20;;;;;;;4.10;1.37;;;10.20;99.90;;;;;;4939283;29;20186;-69
2023/11/06 00:51:46;;;;;;;4.67;0.93;;;10.30;99.90;;;;;;4938357;29;20205;-69
2023/11/06 00:54:14;;;;;;;4.07;1.50;;;10.20;99.90;;;;;;4931904;29;20703;-71
2023/11/06 00:56:40;;;;;;;4.70;1.43;;;10.20;99.90;;;;;;4922442;29;20474;-70
2023/11/06 00:59:06;;;;;;;2.33;1.00;;;10.10;99.90;;;;;;4922138;29;20465;-69
2023/11/06 01:01:31;;;;;;;4.27;1.30;;;10.00;99.90;;;;;;4921063;29;20873;-69
2023/11/06 01:03:57;;;;;;;3.73;1.00;;;9.90;99.90;;;;;;4904027;29;20418;-69
2023/11/06 01:06:24;;;;;;;3.33;1.13;;;9.80;99.90;;;;;;4903996;29;20688;-68
2023/11/06 01:08:50;;;;;;;1.80;0.83;;;9.70;99.90;;;;;;4920145;29;20419;-69
2023/11/06 01:11:16;;;;;;;1.80;1.03;;;9.60;99.90;;;;;;4910111;29;20426;-70
2023/11/06 01:13:42;;;;;;;4.27;1.10;;;9.60;99.90;;;;;;4921735;29;20474;-68
2023/11/06 01:16:08;;;;;;;4.97;2.03;;;9.60;99.90;;;;;;4927204;29;20449;-70
2023/11/06 01:18:33;;;;;;;1.63;0.87;;;9.60;99.90;;;;;;4909623;29;20193;-70
2023/11/06 01:20:59;;;;;;;6.60;1.77;;;9.70;99.90;;;;;;4923589;29;20457;-70
2023/11/06 01:23:24;;;;;;;7.17;1.40;;;9.80;99.90;;;;;;4922039;29;20240;-69
2023/11/06 01:25:50;;;;;;;3.20;1.10;;;9.90;99.90;;;;;;4922556;29;20218;-70
2023/11/06 01:28:16;;;;;;;3.63;1.23;;;10.00;99.90;;;;;;4928847;29;20630;-68
2023/11/06 01:30:41;;;;;;;3.43;0.90;;;10.10;99.90;;;;;;4928309;29;20590;-69
2023/11/06 01:33:07;;;;;;;2.83;1.07;;;10.10;99.90;;;;;;4935856;29;20197;-70
2023/11/06 01:35:32;;;;;;;3.23;1.53;;;10.20;99.90;;;;;;4921796;29;20300;-70
2023/11/06 01:37:59;;;;;;;5.80;1.60;;;10.30;99.90;;;;;;4943228;29;20282;-69
2023/11/06 01:40:24;;;;;;;5.83;2.23;;;10.30;99.90;;;;;;4931414;29;20246;-69
2023/11/06 01:42:53;;;;;;;4.43;1.20;;;10.40;99.90;;;;;;4924709;29;20434;-70
2023/11/06 01:45:18;;;;;;;2.00;0.90;;;10.40;99.90;;;;;;4927980;29;20286;-69
2023/11/06 01:47:45;;;;;;;6.27;1.90;;;10.40;99.90;;;;;;4923462;29;20751;-67
2023/11/06 01:50:12;;;;;;;3.47;1.23;;;10.40;99.90;;;;;;4907175;29;20219;-70
2023/11/06 01:52:38;;;;;;;3.73;1.27;;;10.30;99.90;;;;;;4924695;29;20415;-69
2023/11/06 01:55:04;;;;;;;2.70;1.30;;;10.30;99.90;;;;;;4931759;29;20462;-70
2023/11/06 01:57:30;;;;;;;3.00;1.23;;;10.30;99.90;;;;;;4942304;29;20202;-70
2023/11/06 01:59:56;;;;;;;4.30;1.10;;;10.40;99.90;;;;;;4918256;29;20426;-70
2023/11/06 02:02:23;;;;;;;3.70;1.00;;;10.40;99.90;;;;;;4925313;29;20765;-70
2023/11/06 02:04:49;;;;;;;2.23;1.00;;;10.40;99.90;;;;;;4942895;29;20445;-70
2023/11/06 02:07:18;;;;;;;3.40;1.10;;;10.40;99.90;;;;;;4925101;29;20464;-69
2023/11/06 02:09:44;;;;;;;5.50;1.57;;;10.40;99.90;;;;;;4925386;29;20270;-69
2023/11/06 02:12:10;;;;;;;6.10;1.30;;;10.50;99.90;;;;;;4923803;29;20882;-70
2023/11/06 02:14:52;;;;;;;3.80;1.27;;;10.50;99.90;;;;;;4934795;29;20596;-70
2023/11/06 02:17:19;;;;;;;2.03;1.50;;;10.50;99.90;;;;;;4906075;29;20481;-70
2023/11/06 02:19:45;;;;;;;5.40;1.50;;;10.60;99.90;;;;;;4914049;29;20514;-69
2023/11/06 02:22:14;;;;;;;3.17;0.93;;;10.60;99.90;;;;;;4906867;29;20505;-69
2023/11/06 02:24:40;;;;;;;2.03;0.90;;;10.60;99.90;;;;;;4922592;29;20462;-69
2023/11/06 02:27:08;;;;;;;7.30;2.23;;;10.60;99.90;;;;;;4927701;29;20536;-69
2023/11/06 02:29:34;;;;;;;5.53;1.27;;;10.60;99.90;;;;;;4935555;29;20197;-69
2023/11/06 02:32:00;;;;;;;4.87;1.27;;;10.70;99.90;;;;;;4941274;29;20493;-69
2023/11/06 02:34:25;;;;;;;5.63;1.43;;;10.70;99.90;;;;;;4909843;29;20537;-70
2023/11/06 02:36:51;;;;;;;3.50;0.77;;;10.60;99.90;;;;;;4906618;29;20190;-70
2023/11/06 02:39:16;;;;;;;3.27;0.90;;;10.60;99.90;;;;;;4931754;29;20251;-68
2023/11/06 02:41:42;;;;;;;4.87;1.13;;;10.60;99.90;;;;;;4908119;29;20194;-68
2023/11/06 02:44:08;;;;;;;2.00;0.87;;;10.50;99.90;;;;;;4910433;29;20205;-70
2023/11/06 02:46:33;;;;;;;2.40;0.90;;;10.50;99.90;;;;;;4906193;29;20211;-70
2023/11/06 02:48:59;;;;;;;4.00;1.00;;;10.50;99.90;;;;;;4932232;29;20277;-69
2023/11/06 02:51:25;;;;;;;2.07;0.97;;;10.50;99.90;;;;;;4921406;29;20657;-70
2023/11/06 02:53:50;;;;;;;3.30;1.00;;;10.50;99.90;;;;;;4905046;29;20198;-69
2023/11/06 02:56:16;;;;;;;2.73;1.07;;;10.50;99.90;;;;;;4917330;29;20513;-68
2023/11/06 02:58:41;;;;;;;2.90;1.10;;;10.50;99.90;;;;;;4926953;29;20308;-69
2023/11/06 03:01:07;;;;;;;4.10;1.33;;;10.50;99.90;;;;;;4923336;29;20199;-70
2023/11/06 03:03:34;;;;;;;3.93;1.40;;;10.40;99.90;;;;;;4940400;29;20186;-70
2023/11/06 03:05:59;;;;;;;5.03;1.13;;;10.40;99.90;;;;;;4940233;29;20218;-70
2023/11/06 03:08:25;;;;;;;4.50;1.40;;;10.40;99.90;;;;;;4930386;29;20874;-69
2023/11/06 03:10:51;;;;;;;2.20;1.00;;;10.40;99.90;;;;;;4921645;29;20187;-69
2023/11/06 03:13:17;;;;;;;5.53;1.47;;;10.30;99.90;;;;;;4926039;29;20187;-70
2023/11/06 03:15:43;;;;;;;2.60;1.07;;;10.30;99.90;;;;;;4939253;29;20217;-69
2023/11/06 03:18:09;;;;;;;4.40;1.10;;;10.30;99.90;;;;;;4931452;29;20415;-68
2023/11/06 03:20:35;;;;;;;2.00;0.90;;;10.30;99.90;;;;;;4938078;29;20447;-70
2023/11/06 03:23:01;;;;;;;2.93;1.40;;;10.30;99.90;;;;;;4904415;29;20195;-69
2023/11/06 03:25:27;;;;;;;3.57;1.20;;;10.30;99.90;;;;;;4921004;29;20808;-69
2023/11/06 03:27:52;;;;;;;2.90;1.07;;;10.30;99.90;;;;;;4924612;29;20622;-70
2023/11/06 03:30:18;;;;;;;3.20;1.03;;;10.20;99.90;;;;;;4934799;29;20186;-69
2023/11/06 03:32:45;;;;;;;3.70;1.10;;;10.20;99.90;;;;;;4923191;29;20197;-70
2023/11/06 03:35:10;;;;;;;2.20;1.10;;;10.20;99.90;;;;;;4903419;29;20720;-69
2023/11/06 03:37:36;;;;;;;3.30;1.17;;;10.00;99.90;;;;;;4920539;29;20434;-69
2023/11/06 03:40:01;;;;;;;7.70;1.17;;;10.00;99.90;;;;;;4920940;29;20245;-70
2023/11/06 03:42:27;;;;;;;3.20;1.13;;;10.00;99.90;;;;;;4922809;29;20222;-70
2023/11/06 03:44:52;;;;;;;4.53;0.93;;;9.90;99.90;;;;;;4930584;29;20497;-70
2023/11/06 03:47:18;;;;;;;5.17;1.50;;;9.80;99.90;;;;;;4939846;29;20220;-71
2023/11/06 03:49:43;;;;;;;4.80;1.10;;;9.80;99.90;;;;;;4939292;29;20187;-69
2023/11/06 03:52:11;;;;;;;4.30;0.93;;;9.70;99.90;;;;;;4939617;29;20196;-69
2023/11/06 03:54:38;;;;;;;3.00;1.10;;;9.60;99.90;;;;;;4938526;29;20288;-69
2023/11/06 03:57:03;;;;;;;2.80;1.37;;;9.60;99.90;;;;;;4936841;29;20419;-70
2023/11/06 03:59:29;;;;;;;3.53;1.10;;;9.50;99.90;;;;;;4921090;29;20456;-69
2023/11/06 04:01:54;;;;;;;4.97;1.17;;;9.50;99.90;;;;;;4921136;29;20200;-69
2023/11/06 04:04:20;;;;;;;2.00;1.07;;;9.50;99.90;;;;;;4922204;29;20278;-69
2023/11/06 04:06:45;;;;;;;4.73;1.20;;;9.50;99.90;;;;;;4939874;29;20201;-69
2023/11/06 04:09:11;;;;;;;3.63;0.97;;;9.50;99.90;;;;;;4940607;29;20234;-69
2023/11/06 04:11:37;;;;;;;6.23;1.53;;;9.50;99.90;;;;;;4942744;29;20218;-70
2023/11/06 04:14:06;;;;;;;3.17;1.30;;;9.60;99.90;;;;;;4927973;29;20224;-69
2023/11/06 04:16:32;;;;;;;4.80;1.23;;;9.60;99.90;;;;;;4920740;29;20889;-69
2023/11/06 04:18:59;;;;;;;6.83;1.70;;;9.70;99.90;;;;;;4920885;29;20445;-70
2023/11/06 04:21:26;;;;;;;6.93;1.50;;;9.70;99.90;;;;;;4930300;29;20743;-70
2023/11/06 04:23:52;;;;;;;7.40;1.53;;;9.80;99.90;;;;;;4921355;29;20445;-69
2023/11/06 04:26:17;;;;;;;3.97;1.13;;;9.80;99.90;;;;;;4920587;29;20474;-69
2023/11/06 04:28:43;;;;;;;5.73;1.83;;;9.80;99.90;;;;;;4930071;29;20497;-70
2023/11/06 04:31:09;;;;;;;5.60;1.50;;;9.90;99.90;;;;;;4929007;29;20410;-70
2023/11/06 04:33:35;;;;;;;6.20;1.00;;;9.90;99.90;;;;;;4923885;29;20593;-71
2023/11/06 04:36:00;;;;;;;5.57;1.47;;;10.00;99.90;;;;;;4920415;29;20210;-70
2023/11/06 04:38:26;;;;;;;10.13;1.80;;;10.00;99.90;;;;;;4928414;29;20205;-69
2023/11/06 04:40:51;;;;;;;3.43;1.20;;;10.10;99.90;;;;;;4939803;29;20233;-72
2023/11/06 04:43:17;;;;;;;4.73;1.30;;;10.10;99.90;;;;;;4932360;29;20286;-69
2023/11/06 04:45:43;;;;;;;17.13;3.57;;;10.10;99.90;;;;;;4921495;29;20217;-71
2023/11/06 04:48:08;;;;;;;6.40;1.70;;;10.10;99.90;;;;;;4936094;29;20198;-69
2023/11/06 04:50:34;;;;;;;9.10;1.77;;;10.20;99.90;;;;;;4924714;29;20202;-70
2023/11/06 04:53:00;;;;;;;7.73;1.33;;;10.20;99.90;;;;;;4920721;29;20195;-69
2023/11/06 04:55:26;;;;;;;7.80;1.80;;;10.20;99.90;;;;;;4921040;29;20449;-70
2023/11/06 04:57:52;;;;;;;5.90;2.20;;;10.10;99.90;;;;;;4934241;29;20234;-70
2023/11/06 05:00:18;;;;;;;4.70;1.60;;;10.10;99.90;;;;;;4930425;29;20202;-70
2023/11/06 05:02:44;;;;;;;10.10;3.20;;;10.10;99.90;;;;;;4930887;29;20882;-69
2023/11/06 05:05:09;;;;;;;9.73;3.10;;;10.20;99.90;;;;;;4924224;29;20450;-71
2023/11/06 05:07:36;;;;;;;5.17;2.00;;;10.20;99.90;;;;;;4927043;29;20217;-69
2023/11/06 05:10:05;;;;;;;7.87;1.83;;;10.20;99.90;;;;;;4944140;29;20188;-70
2023/11/06 05:12:31;;;;;;;4.23;1.47;;;10.30;99.90;;;;;;4926955;29;20784;-71
2023/11/06 05:14:57;;;;;;;5.53;2.23;;;10.20;99.90;;;;;;4930298;29;20455;-69
2023/11/06 05:17:23;;;;;;;7.10;1.70;;;10.30;99.90;;;;;;4923260;29;20506;-69
2023/11/06 05:19:48;;;;;;;4.20;1.50;;;10.30;99.90;;;;;;4933676;29;20198;-69
2023/11/06 05:22:14;;;;;;;3.73;1.13;;;10.30;99.90;;;;;;4924226;29;20262;-69
2023/11/06 05:24:43;;;;;;;5.73;2.30;;;10.30;99.90;;;;;;4923831;29;20606;-70
2023/11/06 05:27:08;;;;;;;6.23;2.07;;;10.30;99.90;;;;;;4929765;29;20234;-70
2023/11/06 05:29:34;;;;;;;6.10;1.60;;;10.30;99.90;;;;;;4925210;29;20751;-70
2023/11/06 05:32:00;;;;;;;8.40;2.57;;;10.30;99.90;;;;;;4933165;29;20198;-69
2023/11/06 05:34:25;;;;;;;9.57;2.50;;;10.30;99.90;;;;;;4937000;29;20225;-70
2023/11/06 05:36:51;;;;;;;5.97;1.87;;;10.30;99.90;;;;;;4915927;29;20629;-70
2023/11/06 05:39:17;;;;;;;6.43;1.80;;;10.30;99.90;;;;;;4926960;29;20598;-69
2023/11/06 05:41:48;;;;;;;5.07;2.03;;;10.40;99.90;;;;;;4932959;29;20197;-69
2023/11/06 05:44:14;;;;;;;9.63;2.30;;;10.30;99.90;;;;;;4933985;29;20469;-70
2023/11/06 05:46:39;;;;;;;12.03;2.47;;;10.30;99.90;;;;;;4925943;29;20544;-71
2023/11/06 05:49:05;;;;;;;12.80;2.60;;;10.20;99.90;;;;;;4941528;29;20442;-69
2023/11/06 05:51:31;;;;;;;6.30;2.40;;;10.20;99.90;;;;;;4934771;29;20182;-73
2023/11/06 05:53:56;;;;;;;13.57;3.17;;;10.20;99.90;;;;;;4935510;29;20216;-70
2023/11/06 05:56:22;;;;;;;7.73;2.20;;;10.20;99.90;;;;;;4946448;29;20217;-70
2023/11/06 05:58:48;;;;;;;9.00;2.33;;;10.20;99.90;;;;;;4934102;29;20252;-70
2023/11/06 06:01:13;;;;;;;9.90;1.80;;;10.20;99.90;;;;;;4938134;29;20287;-71
2023/11/06 06:03:39;;;;;;;9.83;2.20;;;10.10;99.90;;;;;;4928975;29;20452;-73
2023/11/06 06:06:05;;;;;;;7.07;1.60;;;10.10;99.90;;;;;;4928684;29;20620;-70
2023/11/06 06:08:31;;;;;;;10.27;2.07;;;10.00;99.90;;;;;;4926885;29;20410;-71
2023/11/06 06:10:56;;;;;;;5.10;1.20;;;9.80;99.90;;;;;;4931357;29;20197;-71
2023/11/06 06:13:22;;;;;;;5.63;1.67;;;9.70;99.90;;;;;;4938737;29;20236;-72
2023/11/06 06:15:48;;;;;;;9.23;2.20;;;9.60;99.90;;;;;;4929519;29;20321;-72
2023/11/06 06:18:13;;;;;;;9.00;2.83;;;9.40;99.90;;;;;;4936868;29;20189;-70
2023/11/06 06:20:39;;;;;;;9.90;2.93;;;9.40;99.90;;;;;;4934846;29;20282;-71
2023/11/06 06:23:04;;;;;;;12.50;2.90;;;9.30;99.90;;;;;;4938735;29;20194;-71
2023/11/06 06:25:30;;;;;;;8.77;3.07;;;9.20;99.90;;;;;;4914909;29;20274;-70
2023/11/06 06:27:56;;;;;;;13.50;3.07;;;9.20;99.90;;;;;;4928297;29;20235;-70
2023/11/06 06:30:21;;;;;;;10.07;2.23;;;9.20;99.90;;;;;;4910583;29;20273;-72
2023/11/06 06:32:47;;;;;;;6.43;2.30;;;9.20;99.90;;;;;;4924607;29;20190;-76
2023/11/06 06:35:12;;;;;;;9.20;2.33;;;9.20;99.90;;;;;;4932285;29;20545;-71
2023/11/06 06:37:38;;;;;;;3.47;1.50;;;9.20;99.90;;;;;;4933469;29;20186;-72
2023/11/06 06:40:07;;;;;;;6.73;2.03;;;9.20;99.90;;;;;;4924573;29;20194;-72
2023/11/06 06:42:36;;;;;;;6.90;2.27;;;9.10;99.90;;;;;;4925253;29;20213;-71
2023/11/06 06:45:04;;;;;;;8.13;1.70;;;9.10;99.90;;;;;;4941854;29;20925;-72
2023/11/06 06:47:30;;;;;;;8.30;1.83;;;9.10;99.90;;;;;;4934458;29;20478;-72
2023/11/06 06:49:55;;;;;;;9.87;2.30;;;9.00;99.90;;;;;;4935279;29;20427;-74
2023/11/06 06:52:21;;;;;;;5.67;1.83;;;9.00;99.90;;;;;;4917997;29;20197;-71
2023/11/06 06:54:48;;;;;;;8.70;2.53;;;8.90;99.90;;;;;;4926955;29;20210;-72
2023/11/06 06:57:14;;;;;;;6.20;2.20;;;8.90;99.90;;;;;;4912993;29;20225;-72
2023/11/06 06:59:39;;;;;;;6.20;3.20;;;8.90;99.90;;;;;;4942078;29;20466;-71
2023/11/06 07:02:05;;;;;;;5.70;2.60;;;8.90;99.90;;;;;;4943672;29;20200;-71
2023/11/06 07:04:33;;;;;;;5.23;1.67;;;8.90;99.90;;;;;;4945113;29;20677;-73
2023/11/06 07:06:58;;;;;;;8.23;2.40;;;8.90;99.90;;;;;;4913653;29;20778;-74
2023/11/06 07:09:26;;;;;;;9.13;2.80;;;8.90;99.90;;;;;;4933856;29;20418;-71
2023/11/06 07:11:52;;;;;;;4.10;1.90;;;8.90;99.90;;;;;;4931648;29;20202;-74
2023/11/06 07:14:18;;;;;;;5.50;2.03;;;9.00;99.90;;;;;;4934763;29;20465;-71
2023/11/06 07:16:44;;;;;;;12.30;3.33;;;9.00;99.90;;;;;;4937829;29;20426;-73
2023/11/06 07:19:10;;;;;;;6.50;2.83;;;9.00;99.90;;;;;;4939672;29;20248;-74
2023/11/06 07:21:35;;;;;;;5.73;2.43;;;9.10;99.90;;;;;;4913168;29;20210;-76
2023/11/06 07:24:01;;;;;;;5.90;2.30;;;9.20;99.90;;;;;;4933042;29;20198;-72
2023/11/06 07:26:28;;;;;;;2.23;1.40;;;9.40;99.90;;;;;;4937293;29;20257;-75
2023/11/06 07:28:53;;;;;;;5.10;1.70;;;9.50;99.90;;;;;;4921605;29;20191;-74
2023/11/06 07:31:21;;;;;;;4.63;1.70;;;9.50;99.90;;;;;;4916017;29;20426;-73
2023/11/06 07:33:47;;;;;;;3.10;1.60;;;9.60;99.90;;;;;;4939361;29;20244;-69
2023/11/06 07:36:12;;;;;;;6.27;2.30;;;9.70;99.90;;;;;;4935944;29;20433;-71
2023/11/06 07:38:38;;;;;;;8.03;2.50;;;9.70;99.90;;;;;;4936602;29;20191;-73
2023/11/06 07:41:04;;;;;;;6.47;2.03;;;9.80;99.90;;;;;;4943923;29;20190;-73
2023/11/06 07:43:29;;;;;;;6.50;1.70;;;9.90;99.90;;;;;;4930136;29;20202;-72
2023/11/06 07:45:55;;;;;;;7.40;1.93;;;9.90;99.90;;;;;;4919562;29;20226;-73
2023/11/06 07:48:21;;;;;;;4.13;1.90;;;10.00;99.90;;;;;;4927444;29;20638;-72
2023/11/06 07:50:46;;;;;;;3.80;1.80;;;10.10;99.90;;;;;;4922867;29;20238;-73
2023/11/06 07:53:12;;;;;;;3.53;1.37;;;10.20;99.90;;;;;;4932460;29;20198;-72
2023/11/06 07:55:37;;;;;;;6.50;2.30;;;10.20;99.90;;;;;;4924976;29;20199;-74
2023/11/06 07:58:03;;;;;;;9.93;2.10;;;10.30;99.90;;;;;;4924043;29;20229;-73
2023/11/06 08:00:29;;;;;;;6.27;1.63;;;10.30;99.90;;;;;;4917109;29;20194;-71
2023/11/06 08:02:54;;;;;;;6.83;1.67;;;10.20;99.90;;;;;;4929293;29;20202;-74
2023/11/06 08:05:20;;;;;;;7.30;2.10;;;10.30;99.90;;;;;;4895061;29;20222;-70
2023/11/06 08:07:46;;;;;;;9.07;2.33;;;10.20;99.90;;;;;;4936674;29;20304;-72
2023/11/06 08:10:12;;;;;;;11.40;2.30;;;10.30;99.90;;;;;;4938664;29;20613;-73
2023/11/06 08:12:38;;;;;;;5.20;2.07;;;10.30;99.90;;;;;;4933681;29;20209;-72
2023/11/06 08:15:07;;;;;;;6.13;2.00;;;10.30;99.90;;;;;;4909991;29;20458;-74
2023/11/06 08:17:33;;;;;;;4.37;1.83;;;10.40;99.90;;;;;;4907383;29;20225;-71
2023/11/06 08:19:59;;;;;;;6.40;1.87;;;10.40;99.90;;;;;;4921726;29;20446;-74
2023/11/06 08:22:26;;;;;;;3.50;1.40;;;10.40;99.90;;;;;;4930967;29;20217;-72
2023/11/06 08:24:52;;;;;;;9.83;2.20;;;10.40;99.90;;;;;;4924554;29;20953;-73
2023/11/06 08:27:18;;;;;;;7.40;1.83;;;10.50;99.90;;;;;;4926199;29;20470;-73
2023/11/06 08:29:44;;;;;;;6.80;2.40;;;10.60;99.90;;;;;;4918326;29;20187;-72
2023/11/06 08:32:11;;;;;;;4.43;2.13;;;10.60;99.90;;;;;;4917988;29;20499;-72
2023/11/06 08:34:43;;;;;;;7.20;2.30;;;10.60;99.90;;;;;;4924499;29;20401;-73
2023/11/06 08:37:11;;;;;;;11.13;2.33;;;10.70;99.90;;;;;;4930367;29;20426;-74
2023/11/06 08:39:45;;;;;;;4.47;1.70;;;10.70;99.90;;;;;;4934171;29;20603;-73
2023/11/06 08:42:11;;;;;;;4.70;1.80;;;10.80;99.90;;;;;;4941022;29;20504;-73
2023/11/06 08:44:40;;;;;;;5.90;2.77;;;10.80;99.90;;;;;;4925366;29;20455;-74
2023/11/06 08:47:06;;;;;;;4.90;1.80;;;10.90;99.90;;;;;;4911714;29;20862;-73
2023/11/06 08:49:31;;;;;;;4.87;1.60;;;10.90;99.90;;;;;;4911311;29;20438;-74
2023/11/06 08:51:57;;;;;;;7.50;1.90;;;11.00;99.90;;;;;;4939661;29;20429;-74
2023/11/06 08:54:23;;;;;;;4.00;1.73;;;11.00;99.90;;;;;;4936978;29;20191;-74
2023/11/06 08:56:48;;;;;;;8.10;2.47;;;11.10;99.90;;;;;;4931071;29;20722;-75
2023/11/06 08:59:14;;;;;;;9.43;2.37;;;11.20;99.90;;;;;;4930576;29;20530;-73
2023/11/06 09:01:40;;;;;;;6.00;1.80;;;11.20;99.90;;;;;;4916080;29;20213;-72
2023/11/06 09:04:10;;;;;;;9.90;2.20;;;11.30;99.90;;;;;;4930665;29;20198;-74
2023/11/06 09:06:39;;;;;;;6.00;1.70;;;11.40;99.90;;;;;;4928075;29;20233;-75
2023/11/06 09:09:09;;;;;;;4.87;1.63;;;11.40;99.90;;;;;;4927768;29;20414;-74
2023/11/06 09:11:36;;;;;;;12.40;4.07;;;11.50;99.90;;;;;;4933641;29;20429;-75
2023/11/06 09:14:03;;;;;;;5.93;1.43;;;11.60;99.90;;;;;;4921692;29;20451;-71
2023/11/06 09:16:31;;;;;;;13.10;2.20;;;11.70;99.90;;;;;;4936743;29;20520;-71
2023/11/06 09:18:57;;;;;;;9.53;2.23;;;11.90;99.80;;;;;;4927896;29;20706;-72
2023/11/06 09:21:24;;;;;;;5.90;2.40;;;12.10;98.70;;;;;;4905517;29;20446;-75
2023/11/06 09:23:49;;;;;;;9.37;1.80;;;12.30;97.90;;;;;;4920818;29;20610;-74
2023/11/06 09:26:15;;;;;;;6.07;2.20;;;12.50;97.50;;;;;;4932085;29;20488;-73
2023/11/06 09:28:41;;;;;;;6.80;1.90;;;12.70;95.20;;;;;;4941680;29;20562;-73
2023/11/06 09:31:07;;;;;;;6.83;1.93;;;12.90;93.20;;;;;;4894515;29;20199;-75
2023/11/06 09:33:32;;;;;;;8.30;1.70;;;12.80;92.60;;;;;;4930379;29;20229;-74
2023/11/06 09:35:58;;;;;;;9.93;3.13;;;12.80;91.80;;;;;;4938075;29;20970;-74
2023/11/06 09:38:23;;;;;;;6.37;2.20;;;12.80;92.10;;;;;;4920767;29;20185;-74
2023/11/06 09:40:49;;;;;;;8.73;1.90;;;12.90;91.90;;;;;;4927824;29;20198;-72
2023/11/06 09:43:16;;;;;;;7.60;2.27;;;13.00;89.70;;;;;;4938916;29;20214;-75
2023/11/06 09:45:42;;;;;;;5.53;1.73;;;13.10;88.70;;;;;;4914098;29;20216;-73
2023/11/06 09:48:09;;;;;;;7.07;1.93;;;13.20;88.30;;;;;;4941045;29;20424;-73
2023/11/06 09:50:35;;;;;;;4.80;1.60;;;13.40;87.60;;;;;;4940717;29;20202;-72
2023/11/06 09:53:01;;;;;;;5.13;1.80;;;13.50;85.30;;;;;;4926887;29;20760;-72
2023/11/06 09:55:28;;;;;;;7.00;2.37;;;13.70;84.40;;;;;;4911587;29;20451;-74
2023/11/06 09:57:56;;;;;;;7.13;2.33;;;13.80;82.00;;;;;;4942472;29;21042;-73
2023/11/06 10:00:22;;;;;;;6.30;2.07;;;13.90;81.40;;;;;;4906971;29;20442;-74
2023/11/06 10:02:49;;;;;;;5.07;1.93;;;14.00;80.00;;;;;;4910501;29;20714;-73
2023/11/06 10:05:16;;;;;;;5.83;1.50;;;14.00;79.40;;;;;;4931185;29;20457;-74
2023/11/06 10:07:51;;;;;;;3.50;1.53;;;14.00;79.10;;;;;;4933101;29;20454;-73
2023/11/06 10:10:22;;;;;;;6.70;1.80;;;14.00;78.20;;;;;;4933636;29;20429;-74
2023/11/06 10:13:09;;;;;;;7.10;2.07;;;14.20;77.70;;;;;;4920780;29;20482;-73
2023/11/06 10:15:36;;;;;;;8.20;2.00;;;14.40;75.70;;;;;;4920212;29;20450;-72
2023/11/06 10:18:13;;;;;;;4.00;1.93;;;14.40;74.00;;;;;;4901548;29;20441;-73
2023/11/06 10:20:44;;;;;;;10.50;2.37;;;14.40;73.80;;;;;;4936696;29;20440;-72
2023/11/06 10:23:10;;;;;;;11.87;3.37;;;14.20;74.00;;;;;;4937917;29;20422;-71
2023/11/06 10:25:37;;;;;;;5.67;2.50;;;14.20;73.70;;;;;;4925425;29;20510;-74
2023/11/06 10:28:17;;;;;;;5.13;2.00;;;14.10;74.20;;;;;;4930243;29;20245;-72
2023/11/06 10:30:48;;;;;;;9.20;2.00;;;14.10;74.20;;;;;;4916435;29;20480;-71
2023/11/06 10:33:15;;;;;;;5.27;1.87;;;14.10;72.80;;;;;;4933641;29;20450;-73
2023/11/06 10:35:41;;;;;;;3.23;1.90;;;14.00;73.40;;;;;;4940742;29;20453;-73
2023/11/06 10:38:08;;;;;;;7.57;2.60;;;13.90;73.80;;;;;;4938100;29;20460;-72
2023/11/06 10:40:35;;;;;;;7.57;1.80;;;13.90;73.90;;;;;;4909821;29;20686;-74
2023/11/06 10:43:05;;;;;;;4.63;1.67;;;13.90;73.50;;;;;;4936002;29;20490;-72
2023/11/06 10:45:32;;;;;;;10.77;2.40;;;13.90;73.30;;;;;;4903892;29;20459;-75
2023/11/06 10:48:08;;;;;;;7.50;2.13;;;13.90;73.70;;;;;;4901894;29;20548;-73
2023/11/06 10:50:37;;;;;;;10.03;2.20;;;13.80;73.80;;;;;;4933197;29;20722;-74
2023/11/06 10:53:06;;;;;;;7.57;2.00;;;13.80;73.00;;;;;;4925628;29;20547;-73
2023/11/06 10:55:33;;;;;;;5.23;1.87;;;13.80;73.80;;;;;;4937437;29;20615;-75
2023/11/06 10:58:00;;;;;;;9.17;2.70;;;13.80;73.20;;;;;;4929880;29;20488;-72
2023/11/06 11:00:31;;;;;;;2.70;1.00;;;13.80;74.10;;;;;;4933677;29;20495;-74
2023/11/06 11:03:01;;;;;;;2.47;1.57;;;13.70;75.00;;;;;;4948861;29;20434;-76
2023/11/06 11:05:30;;;;;;;5.40;1.93;;;13.70;75.80;;;;;;4930554;29;20214;-76
2023/11/06 11:07:56;;;;;;;6.53;2.30;;;13.60;76.00;;;;;;4899969;29;20482;-72
2023/11/06 11:10:27;;;;;;;11.60;2.37;;;13.60;76.00;;;;;;4910789;29;20442;-73
2023/11/06 11:12:55;;;;;;;4.70;1.90;;;13.60;76.20;;;;;;4938568;29;20486;-72
2023/11/06 11:15:32;;;;;;;9.07;2.23;;;13.60;76.80;;;;;;4934310;29;20446;-72
2023/11/06 11:18:13;;;;;;;2.60;1.53;;;13.60;77.20;;;;;;4921800;29;20530;-72
2023/11/06 11:21:03;;;;;;;7.47;1.90;;;13.60;77.80;;;;;;4927398;29;20487;-76
2023/11/06 11:23:44;;;;;;;9.30;2.10;;;13.70;77.40;;;;;;4913300;29;20426;-73
2023/11/06 11:26:10;;;;;;;6.10;1.87;;;13.70;77.70;;;;;;4924924;29;20487;-73
2023/11/06 11:28:55;;;;;;;5.73;2.20;;;13.80;77.50;;;;;;4927208;29;20418;-75
2023/11/06 11:31:35;;;;;;;12.60;1.97;;;13.90;77.40;;;;;;4920074;29;20185;-73
2023/11/06 11:34:01;;;;;;;3.90;1.70;;;14.10;76.50;;;;;;4931014;29;20433;-76
2023/11/06 11:36:35;;;;;;;4.43;1.93;;;14.30;76.70;;;;;;4903558;29;20707;-73
2023/11/06 11:39:05;;;;;;;9.57;1.77;;;14.50;76.00;;;;;;4929730;29;20446;-74
2023/11/06 11:41:31;;;;;;;8.47;1.97;;;14.70;73.60;;;;;;4920348;29;20868;-73
2023/11/06 11:44:08;;;;;;;5.07;1.60;;;14.80;73.60;;;;;;4932581;29;20439;-73
2023/11/06 11:46:56;;;;;;;17.10;2.33;;;14.90;72.00;;;;;;4929653;29;20213;-76
2023/11/06 11:49:43;;;;;;;2.40;1.13;;;15.10;72.50;;;;;;4933467;29;20846;-75
2023/11/06 11:52:10;;;;;;;2.47;0.90;;;15.20;70.60;;;;;;4922937;29;20500;-74
2023/11/06 11:54:39;;;;;;;9.13;1.60;;;15.40;70.50;;;;;;4923593;29;20458;-73
2023/11/06 11:57:09;;;;;;;3.80;1.63;;;15.50;69.60;;;;;;4928210;29;20914;-74
2023/11/06 11:59:40;;;;;;;3.37;1.77;;;15.60;68.40;;;;;;4910232;29;20447;-76
2023/11/06 12:02:28;;;;;;;2.63;1.40;;;15.60;69.10;;;;;;4908409;29;20785;-73
2023/11/06 12:04:55;;;;;;;2.40;1.13;;;15.80;67.50;;;;;;4897595;29;20455;-73
2023/11/06 12:07:22;;;;;;;3.80;1.17;;;15.90;67.40;;;;;;4918229;29;20477;-76
2023/11/06 12:09:51;;;;;;;4.70;1.23;;;15.90;67.00;;;;;;4923597;29;20499;-76
2023/11/06 12:12:22;;;;;;;7.47;1.93;;;15.80;66.40;;;;;;4891124;29;20443;-77
2023/11/06 12:14:48;;;;;;;5.50;1.53;;;15.80;67.10;;;;;;4911863;29;20543;-75
2023/11/06 12:17:28;;;;;;;3.00;1.90;;;15.70;68.00;;;;;;4902499;29;20430;-76
2023/11/06 12:19:54;;;;;;;3.63;1.67;;;15.70;68.70;;;;;;4893281;29;20901;-76
2023/11/06 12:22:20;;;;;;;4.23;1.40;;;15.80;68.60;;;;;;4918776;29;20426;-75
2023/11/06 12:24:53;;;;;;;6.10;1.53;;;15.80;69.70;;;;;;4887905;29;20313;-76
2023/11/06 12:27:29;;;;;;;6.00;1.57;;;15.70;68.60;;;;;;4899212;29;20460;-75
2023/11/06 12:30:00;;;;;;;3.00;1.30;;;15.80;68.70;;;;;;4909248;29;20470;-74
2023/11/06 12:32:27;;;;;;;8.60;2.23;;;15.90;66.60;;;;;;4913324;29;20615;-76
2023/11/06 12:35:22;;;;;;;4.07;1.27;;;15.90;67.20;;;;;;4903943;29;20470;-74
2023/11/06 12:38:00;;;;;;;3.13;1.60;;;15.80;67.80;;;;;;4894091;29;20431;-77
2023/11/06 12:40:27;;;;;;;5.20;1.60;;;15.70;68.00;;;;;;4920393;29;20479;-76
2023/11/06 12:42:57;;;;;;;4.47;1.23;;;15.70;68.20;;;;;;4900355;29;20712;-77
2023/11/06 12:45:31;;;;;;;3.40;1.00;;;15.60;67.90;;;;;;4889546;29;20728;-75
2023/11/06 12:47:59;;;;;;;2.57;1.20;;;15.40;68.50;;;;;;4889178;29;20532;-75